sensor_id;sensor_type;location;lat;lon;timestamp;P1;durP1;ratioP1;P2;durP2;ratioP2
16330;SDS011;8275;48.206;16.340;2022-11-11T00:02:20;4.32;;;3.95;;
16330;SDS011;8275;48.206;16.340;2022-11-11T00:04:48;5.28;;;3.88;;
16330;SDS011;8275;48.206;16.340;2022-11-11T00:07:17;4.53;;;3.88;;
16330;SDS011;8275;48.206;16.340;2022-11-11T00:09:47;4.05;;;3.65;;
16330;SDS011;8275;48.206;16.340;2022-11-11T00:12:15;9.52;;;4.95;;
16330;SDS011;8275;48.206;16.340;2022-11-11T00:14:44;5.18;;;4.55;;
16330;SDS011;8275;48.206;16.340;2022-11-11T00:17:13;5.80;;;4.63;;
16330;SDS011;8275;48.206;16.340;2022-11-11T00:19:59;4.70;;;4.07;;
16330;SDS011;8275;48.206;16.340;2022-11-11T00:22:49;5.57;;;4.80;;
16330;SDS011;8275;48.206;16.340;2022-11-11T00:25:36;5.85;;;4.75;;
16330;SDS011;8275;48.206;16.340;2022-11-11T00:28:05;4.30;;;3.85;;
16330;SDS011;8275;48.206;16.340;2022-11-11T00:30:34;5.80;;;4.32;;
16330;SDS011;8275;48.206;16.340;2022-11-11T00:33:02;4.00;;;3.65;;
16330;SDS011;8275;48.206;16.340;2022-11-11T00:35:30;5.53;;;5.13;;
16330;SDS011;8275;48.206;16.340;2022-11-11T00:38:13;4.53;;;3.88;;
16330;SDS011;8275;48.206;16.340;2022-11-11T00:41:04;8.00;;;4.18;;
16330;SDS011;8275;48.206;16.340;2022-11-11T00:43:33;5.32;;;4.93;;
16330;SDS011;8275;48.206;16.340;2022-11-11T00:46:01;5.05;;;4.50;;
16330;SDS011;8275;48.206;16.340;2022-11-11T00:48:47;3.47;;;3.17;;
16330;SDS011;8275;48.206;16.340;2022-11-11T00:51:33;4.65;;;3.90;;
16330;SDS011;8275;48.206;16.340;2022-11-11T00:54:02;6.60;;;4.28;;
16330;SDS011;8275;48.206;16.340;2022-11-11T00:56:32;6.13;;;5.35;;
16330;SDS011;8275;48.206;16.340;2022-11-11T00:59:02;7.88;;;4.13;;
16330;SDS011;8275;48.206;16.340;2022-11-11T01:01:32;5.85;;;4.60;;
16330;SDS011;8275;48.206;16.340;2022-11-11T01:04:01;6.03;;;4.65;;
16330;SDS011;8275;48.206;16.340;2022-11-11T01:06:31;6.60;;;4.47;;
16330;SDS011;8275;48.206;16.340;2022-11-11T01:09:03;4.90;;;4.40;;
16330;SDS011;8275;48.206;16.340;2022-11-11T01:11:33;5.68;;;4.63;;
16330;SDS011;8275;48.206;16.340;2022-11-11T01:14:02;5.57;;;4.78;;
16330;SDS011;8275;48.206;16.340;2022-11-11T01:16:30;6.85;;;4.75;;
16330;SDS011;8275;48.206;16.340;2022-11-11T01:18:59;5.35;;;4.85;;
16330;SDS011;8275;48.206;16.340;2022-11-11T01:21:27;5.32;;;4.82;;
16330;SDS011;8275;48.206;16.340;2022-11-11T01:23:56;3.97;;;3.67;;
16330;SDS011;8275;48.206;16.340;2022-11-11T01:26:25;5.80;;;3.65;;
16330;SDS011;8275;48.206;16.340;2022-11-11T01:28:58;6.60;;;5.13;;
16330;SDS011;8275;48.206;16.340;2022-11-11T01:31:26;6.68;;;5.65;;
16330;SDS011;8275;48.206;16.340;2022-11-11T01:33:55;5.43;;;4.93;;
16330;SDS011;8275;48.206;16.340;2022-11-11T01:36:24;15.07;;;5.53;;
16330;SDS011;8275;48.206;16.340;2022-11-11T01:38:54;5.63;;;4.18;;
16330;SDS011;8275;48.206;16.340;2022-11-11T01:41:25;7.13;;;6.40;;
16330;SDS011;8275;48.206;16.340;2022-11-11T01:44:02;5.80;;;4.88;;
16330;SDS011;8275;48.206;16.340;2022-11-11T01:46:46;3.92;;;3.58;;
16330;SDS011;8275;48.206;16.340;2022-11-11T01:49:23;5.28;;;4.15;;
16330;SDS011;8275;48.206;16.340;2022-11-11T01:51:58;7.43;;;4.57;;
16330;SDS011;8275;48.206;16.340;2022-11-11T01:54:35;4.70;;;4.20;;
16330;SDS011;8275;48.206;16.340;2022-11-11T01:57:10;7.55;;;5.53;;
16330;SDS011;8275;48.206;16.340;2022-11-11T01:59:47;7.93;;;5.57;;
16330;SDS011;8275;48.206;16.340;2022-11-11T02:02:27;5.18;;;4.68;;
16330;SDS011;8275;48.206;16.340;2022-11-11T02:05:02;6.35;;;5.65;;
16330;SDS011;8275;48.206;16.340;2022-11-11T02:07:50;5.38;;;4.57;;
16330;SDS011;8275;48.206;16.340;2022-11-11T02:10:20;5.20;;;4.68;;
16330;SDS011;8275;48.206;16.340;2022-11-11T02:12:50;5.68;;;5.03;;
16330;SDS011;8275;48.206;16.340;2022-11-11T02:15:38;9.98;;;5.47;;
16330;SDS011;8275;48.206;16.340;2022-11-11T02:18:06;7.35;;;4.97;;
16330;SDS011;8275;48.206;16.340;2022-11-11T02:20:36;5.88;;;4.35;;
16330;SDS011;8275;48.206;16.340;2022-11-11T02:23:08;7.78;;;5.10;;
16330;SDS011;8275;48.206;16.340;2022-11-11T02:25:44;4.43;;;4.00;;
16330;SDS011;8275;48.206;16.340;2022-11-11T02:28:15;6.22;;;4.10;;
16330;SDS011;8275;48.206;16.340;2022-11-11T02:30:46;4.60;;;4.15;;
16330;SDS011;8275;48.206;16.340;2022-11-11T02:33:14;7.22;;;6.18;;
16330;SDS011;8275;48.206;16.340;2022-11-11T02:35:44;5.85;;;5.10;;
16330;SDS011;8275;48.206;16.340;2022-11-11T02:38:21;7.00;;;4.68;;
16330;SDS011;8275;48.206;16.340;2022-11-11T02:40:53;5.68;;;4.72;;
16330;SDS011;8275;48.206;16.340;2022-11-11T02:43:38;6.03;;;4.78;;
16330;SDS011;8275;48.206;16.340;2022-11-11T02:46:08;8.77;;;5.03;;
16330;SDS011;8275;48.206;16.340;2022-11-11T02:48:36;5.50;;;4.75;;
16330;SDS011;8275;48.206;16.340;2022-11-11T02:51:05;4.50;;;4.07;;
16330;SDS011;8275;48.206;16.340;2022-11-11T02:53:34;8.32;;;4.82;;
16330;SDS011;8275;48.206;16.340;2022-11-11T02:56:04;4.75;;;3.78;;
16330;SDS011;8275;48.206;16.340;2022-11-11T02:58:33;5.57;;;5.07;;
16330;SDS011;8275;48.206;16.340;2022-11-11T03:01:03;7.32;;;5.53;;
16330;SDS011;8275;48.206;16.340;2022-11-11T03:03:32;5.43;;;4.93;;
16330;SDS011;8275;48.206;16.340;2022-11-11T03:06:00;5.53;;;4.38;;
16330;SDS011;8275;48.206;16.340;2022-11-11T03:08:29;7.03;;;4.57;;
16330;SDS011;8275;48.206;16.340;2022-11-11T03:10:57;5.72;;;4.95;;
16330;SDS011;8275;48.206;16.340;2022-11-11T03:13:27;5.30;;;4.57;;
16330;SDS011;8275;48.206;16.340;2022-11-11T03:15:55;5.03;;;4.35;;
16330;SDS011;8275;48.206;16.340;2022-11-11T03:18:24;5.32;;;4.82;;
16330;SDS011;8275;48.206;16.340;2022-11-11T03:20:51;5.07;;;4.53;;
16330;SDS011;8275;48.206;16.340;2022-11-11T03:23:52;5.00;;;4.47;;
16330;SDS011;8275;48.206;16.340;2022-11-11T03:26:20;4.57;;;4.18;;
16330;SDS011;8275;48.206;16.340;2022-11-11T03:28:49;7.22;;;4.07;;
16330;SDS011;8275;48.206;16.340;2022-11-11T03:31:17;6.10;;;3.92;;
16330;SDS011;8275;48.206;16.340;2022-11-11T03:33:46;6.28;;;5.63;;
16330;SDS011;8275;48.206;16.340;2022-11-11T03:36:14;5.95;;;5.45;;
16330;SDS011;8275;48.206;16.340;2022-11-11T03:38:43;6.25;;;5.65;;
16330;SDS011;8275;48.206;16.340;2022-11-11T03:41:10;6.10;;;4.63;;
16330;SDS011;8275;48.206;16.340;2022-11-11T03:43:39;8.75;;;5.57;;
16330;SDS011;8275;48.206;16.340;2022-11-11T03:46:09;4.88;;;4.35;;
16330;SDS011;8275;48.206;16.340;2022-11-11T03:48:37;7.78;;;4.97;;
16330;SDS011;8275;48.206;16.340;2022-11-11T03:51:05;5.85;;;4.95;;
16330;SDS011;8275;48.206;16.340;2022-11-11T03:53:34;8.00;;;5.50;;
16330;SDS011;8275;48.206;16.340;2022-11-11T03:56:02;6.15;;;5.45;;
16330;SDS011;8275;48.206;16.340;2022-11-11T03:58:31;6.82;;;5.70;;
16330;SDS011;8275;48.206;16.340;2022-11-11T04:00:59;8.27;;;5.13;;
16330;SDS011;8275;48.206;16.340;2022-11-11T04:03:49;5.63;;;5.13;;
16330;SDS011;8275;48.206;16.340;2022-11-11T04:06:46;4.75;;;4.35;;
16330;SDS011;8275;48.206;16.340;2022-11-11T04:09:32;5.47;;;4.85;;
16330;SDS011;8275;48.206;16.340;2022-11-11T04:12:18;7.50;;;5.45;;
16330;SDS011;8275;48.206;16.340;2022-11-11T04:14:47;6.25;;;5.22;;
16330;SDS011;8275;48.206;16.340;2022-11-11T04:17:33;5.38;;;4.55;;
16330;SDS011;8275;48.206;16.340;2022-11-11T04:20:03;5.28;;;4.85;;
16330;SDS011;8275;48.206;16.340;2022-11-11T04:22:50;6.38;;;5.78;;
16330;SDS011;8275;48.206;16.340;2022-11-11T04:25:19;5.38;;;4.35;;
16330;SDS011;8275;48.206;16.340;2022-11-11T04:28:07;6.57;;;5.45;;
16330;SDS011;8275;48.206;16.340;2022-11-11T04:30:53;4.65;;;4.07;;
16330;SDS011;8275;48.206;16.340;2022-11-11T04:33:21;6.72;;;3.88;;
16330;SDS011;8275;48.206;16.340;2022-11-11T04:35:50;6.07;;;4.97;;
16330;SDS011;8275;48.206;16.340;2022-11-11T04:38:18;6.03;;;5.43;;
16330;SDS011;8275;48.206;16.340;2022-11-11T04:41:04;6.90;;;6.03;;
16330;SDS011;8275;48.206;16.340;2022-11-11T04:43:34;5.43;;;4.63;;
16330;SDS011;8275;48.206;16.340;2022-11-11T04:46:22;5.95;;;5.28;;
16330;SDS011;8275;48.206;16.340;2022-11-11T04:48:50;6.00;;;4.60;;
16330;SDS011;8275;48.206;16.340;2022-11-11T04:51:19;7.53;;;5.18;;
16330;SDS011;8275;48.206;16.340;2022-11-11T04:54:08;6.63;;;4.50;;
16330;SDS011;8275;48.206;16.340;2022-11-11T04:56:36;6.97;;;4.88;;
16330;SDS011;8275;48.206;16.340;2022-11-11T04:59:13;5.80;;;4.60;;
16330;SDS011;8275;48.206;16.340;2022-11-11T05:01:45;6.00;;;5.13;;
16330;SDS011;8275;48.206;16.340;2022-11-11T05:04:31;5.30;;;4.20;;
16330;SDS011;8275;48.206;16.340;2022-11-11T05:07:01;6.05;;;5.32;;
16330;SDS011;8275;48.206;16.340;2022-11-11T05:09:47;7.20;;;6.00;;
16330;SDS011;8275;48.206;16.340;2022-11-11T05:12:15;6.43;;;4.57;;
16330;SDS011;8275;48.206;16.340;2022-11-11T05:14:43;5.03;;;4.45;;
16330;SDS011;8275;48.206;16.340;2022-11-11T05:17:29;10.77;;;5.35;;
16330;SDS011;8275;48.206;16.340;2022-11-11T05:20:15;5.03;;;4.55;;
16330;SDS011;8275;48.206;16.340;2022-11-11T05:23:05;6.05;;;4.82;;
16330;SDS011;8275;48.206;16.340;2022-11-11T05:25:34;8.15;;;5.40;;
16330;SDS011;8275;48.206;16.340;2022-11-11T05:28:01;6.25;;;5.38;;
16330;SDS011;8275;48.206;16.340;2022-11-11T05:30:30;10.55;;;6.57;;
16330;SDS011;8275;48.206;16.340;2022-11-11T05:32:59;8.20;;;4.95;;
16330;SDS011;8275;48.206;16.340;2022-11-11T05:35:29;8.20;;;5.15;;
16330;SDS011;8275;48.206;16.340;2022-11-11T05:38:00;5.63;;;5.10;;
16330;SDS011;8275;48.206;16.340;2022-11-11T05:40:49;5.78;;;4.60;;
16330;SDS011;8275;48.206;16.340;2022-11-11T05:43:17;7.82;;;6.43;;
16330;SDS011;8275;48.206;16.340;2022-11-11T05:45:46;5.85;;;5.25;;
16330;SDS011;8275;48.206;16.340;2022-11-11T05:48:15;6.68;;;5.60;;
16330;SDS011;8275;48.206;16.340;2022-11-11T05:50:43;14.23;;;6.18;;
16330;SDS011;8275;48.206;16.340;2022-11-11T05:53:11;5.05;;;4.65;;
16330;SDS011;8275;48.206;16.340;2022-11-11T05:55:40;7.85;;;6.80;;
16330;SDS011;8275;48.206;16.340;2022-11-11T05:58:09;7.85;;;6.13;;
16330;SDS011;8275;48.206;16.340;2022-11-11T06:00:38;6.57;;;5.80;;
16330;SDS011;8275;48.206;16.340;2022-11-11T06:03:06;8.07;;;7.35;;
16330;SDS011;8275;48.206;16.340;2022-11-11T06:05:35;10.82;;;7.85;;
16330;SDS011;8275;48.206;16.340;2022-11-11T06:08:03;8.02;;;7.07;;
16330;SDS011;8275;48.206;16.340;2022-11-11T06:10:32;8.88;;;7.78;;
16330;SDS011;8275;48.206;16.340;2022-11-11T06:13:00;8.20;;;6.50;;
16330;SDS011;8275;48.206;16.340;2022-11-11T06:15:31;9.27;;;6.43;;
16330;SDS011;8275;48.206;16.340;2022-11-11T06:18:01;9.43;;;6.68;;
16330;SDS011;8275;48.206;16.340;2022-11-11T06:20:31;8.82;;;6.53;;
16330;SDS011;8275;48.206;16.340;2022-11-11T06:23:00;9.65;;;8.43;;
16330;SDS011;8275;48.206;16.340;2022-11-11T06:25:30;8.15;;;6.68;;
16330;SDS011;8275;48.206;16.340;2022-11-11T06:28:18;9.02;;;7.63;;
16330;SDS011;8275;48.206;16.340;2022-11-11T06:30:48;7.45;;;5.95;;
16330;SDS011;8275;48.206;16.340;2022-11-11T06:33:17;9.73;;;6.88;;
16330;SDS011;8275;48.206;16.340;2022-11-11T06:35:47;8.15;;;7.05;;
16330;SDS011;8275;48.206;16.340;2022-11-11T06:38:16;12.85;;;7.30;;
16330;SDS011;8275;48.206;16.340;2022-11-11T06:40:45;11.73;;;8.05;;
16330;SDS011;8275;48.206;16.340;2022-11-11T06:43:13;7.95;;;7.07;;
16330;SDS011;8275;48.206;16.340;2022-11-11T06:45:42;6.30;;;5.22;;
16330;SDS011;8275;48.206;16.340;2022-11-11T06:48:12;13.15;;;6.43;;
16330;SDS011;8275;48.206;16.340;2022-11-11T06:50:41;12.70;;;6.60;;
16330;SDS011;8275;48.206;16.340;2022-11-11T06:53:10;7.68;;;6.95;;
16330;SDS011;8275;48.206;16.340;2022-11-11T06:55:40;7.22;;;5.50;;
16330;SDS011;8275;48.206;16.340;2022-11-11T06:58:10;8.10;;;7.30;;
16330;SDS011;8275;48.206;16.340;2022-11-11T07:00:41;9.52;;;6.78;;
16330;SDS011;8275;48.206;16.340;2022-11-11T07:03:14;9.35;;;7.10;;
16330;SDS011;8275;48.206;16.340;2022-11-11T07:05:50;6.93;;;6.30;;
16330;SDS011;8275;48.206;16.340;2022-11-11T07:08:24;20.35;;;6.70;;
16330;SDS011;8275;48.206;16.340;2022-11-11T07:10:53;8.07;;;6.93;;
16330;SDS011;8275;48.206;16.340;2022-11-11T07:13:22;8.63;;;6.25;;
16330;SDS011;8275;48.206;16.340;2022-11-11T07:15:51;13.38;;;7.47;;
16330;SDS011;8275;48.206;16.340;2022-11-11T07:18:20;8.90;;;7.13;;
16330;SDS011;8275;48.206;16.340;2022-11-11T07:20:50;7.15;;;5.80;;
16330;SDS011;8275;48.206;16.340;2022-11-11T07:23:18;10.07;;;7.70;;
16330;SDS011;8275;48.206;16.340;2022-11-11T07:25:47;7.93;;;6.30;;
16330;SDS011;8275;48.206;16.340;2022-11-11T07:28:15;10.30;;;6.28;;
16330;SDS011;8275;48.206;16.340;2022-11-11T07:30:43;16.27;;;7.75;;
16330;SDS011;8275;48.206;16.340;2022-11-11T07:33:12;11.77;;;8.43;;
16330;SDS011;8275;48.206;16.340;2022-11-11T07:35:45;12.10;;;7.63;;
16330;SDS011;8275;48.206;16.340;2022-11-11T07:38:14;9.05;;;8.13;;
16330;SDS011;8275;48.206;16.340;2022-11-11T07:40:42;7.75;;;6.95;;
16330;SDS011;8275;48.206;16.340;2022-11-11T07:43:10;13.77;;;6.75;;
16330;SDS011;8275;48.206;16.340;2022-11-11T07:45:39;7.53;;;6.13;;
16330;SDS011;8275;48.206;16.340;2022-11-11T07:48:07;8.25;;;7.45;;
16330;SDS011;8275;48.206;16.340;2022-11-11T07:50:36;10.15;;;6.97;;
16330;SDS011;8275;48.206;16.340;2022-11-11T07:53:05;10.40;;;6.80;;
16330;SDS011;8275;48.206;16.340;2022-11-11T07:55:34;8.32;;;6.63;;
16330;SDS011;8275;48.206;16.340;2022-11-11T07:58:02;8.93;;;6.03;;
16330;SDS011;8275;48.206;16.340;2022-11-11T08:00:32;7.90;;;7.07;;
16330;SDS011;8275;48.206;16.340;2022-11-11T08:03:00;7.03;;;5.68;;
16330;SDS011;8275;48.206;16.340;2022-11-11T08:05:33;8.77;;;6.15;;
16330;SDS011;8275;48.206;16.340;2022-11-11T08:08:02;7.05;;;6.45;;
16330;SDS011;8275;48.206;16.340;2022-11-11T08:10:33;9.05;;;6.18;;
16330;SDS011;8275;48.206;16.340;2022-11-11T08:13:02;10.23;;;7.78;;
16330;SDS011;8275;48.206;16.340;2022-11-11T08:15:48;8.10;;;5.55;;
16330;SDS011;8275;48.206;16.340;2022-11-11T08:18:17;12.77;;;5.97;;
16330;SDS011;8275;48.206;16.340;2022-11-11T08:20:45;6.38;;;5.60;;
16330;SDS011;8275;48.206;16.340;2022-11-11T08:23:20;5.55;;;5.05;;
16330;SDS011;8275;48.206;16.340;2022-11-11T08:26:19;7.57;;;4.95;;
16330;SDS011;8275;48.206;16.340;2022-11-11T08:28:55;6.90;;;6.18;;
16330;SDS011;8275;48.206;16.340;2022-11-11T08:31:24;6.43;;;5.55;;
16330;SDS011;8275;48.206;16.340;2022-11-11T08:33:52;8.45;;;5.63;;
16330;SDS011;8275;48.206;16.340;2022-11-11T08:36:21;6.20;;;5.60;;
16330;SDS011;8275;48.206;16.340;2022-11-11T08:38:51;3.78;;;3.47;;
16330;SDS011;8275;48.206;16.340;2022-11-11T08:41:21;4.28;;;3.45;;
16330;SDS011;8275;48.206;16.340;2022-11-11T08:43:50;4.35;;;3.72;;
16330;SDS011;8275;48.206;16.340;2022-11-11T08:46:19;5.40;;;4.35;;
16330;SDS011;8275;48.206;16.340;2022-11-11T08:48:49;3.38;;;3.08;;
16330;SDS011;8275;48.206;16.340;2022-11-11T08:51:17;5.07;;;4.15;;
16330;SDS011;8275;48.206;16.340;2022-11-11T08:53:45;8.98;;;7.72;;
16330;SDS011;8275;48.206;16.340;2022-11-11T08:56:14;10.63;;;7.90;;
16330;SDS011;8275;48.206;16.340;2022-11-11T08:58:44;10.75;;;7.85;;
16330;SDS011;8275;48.206;16.340;2022-11-11T09:01:12;9.52;;;7.07;;
16330;SDS011;8275;48.206;16.340;2022-11-11T09:03:41;8.85;;;8.05;;
16330;SDS011;8275;48.206;16.340;2022-11-11T09:06:11;13.48;;;7.28;;
16330;SDS011;8275;48.206;16.340;2022-11-11T09:08:40;9.77;;;8.25;;
16330;SDS011;8275;48.206;16.340;2022-11-11T09:11:10;11.10;;;9.13;;
16330;SDS011;8275;48.206;16.340;2022-11-11T09:13:38;11.18;;;9.00;;
16330;SDS011;8275;48.206;16.340;2022-11-11T09:16:09;11.50;;;9.52;;
16330;SDS011;8275;48.206;16.340;2022-11-11T09:18:37;12.32;;;9.38;;
16330;SDS011;8275;48.206;16.340;2022-11-11T09:21:06;16.35;;;8.93;;
16330;SDS011;8275;48.206;16.340;2022-11-11T09:23:34;8.38;;;6.97;;
16330;SDS011;8275;48.206;16.340;2022-11-11T09:26:03;9.50;;;7.95;;
16330;SDS011;8275;48.206;16.340;2022-11-11T09:28:32;8.45;;;7.40;;
16330;SDS011;8275;48.206;16.340;2022-11-11T09:31:00;9.32;;;6.53;;
16330;SDS011;8275;48.206;16.340;2022-11-11T09:33:51;10.35;;;6.57;;
16330;SDS011;8275;48.206;16.340;2022-11-11T09:36:20;8.40;;;7.43;;
16330;SDS011;8275;48.206;16.340;2022-11-11T09:38:49;8.15;;;6.05;;
16330;SDS011;8275;48.206;16.340;2022-11-11T09:41:18;9.38;;;7.63;;
16330;SDS011;8275;48.206;16.340;2022-11-11T09:43:54;8.20;;;7.13;;
16330;SDS011;8275;48.206;16.340;2022-11-11T09:46:29;8.75;;;6.85;;
16330;SDS011;8275;48.206;16.340;2022-11-11T09:49:11;7.15;;;5.63;;
16330;SDS011;8275;48.206;16.340;2022-11-11T09:52:11;7.22;;;6.53;;
16330;SDS011;8275;48.206;16.340;2022-11-11T09:54:47;8.13;;;7.32;;
16330;SDS011;8275;48.206;16.340;2022-11-11T09:57:23;8.48;;;7.65;;
16330;SDS011;8275;48.206;16.340;2022-11-11T10:00:03;7.00;;;6.32;;
16330;SDS011;8275;48.206;16.340;2022-11-11T10:02:48;8.75;;;7.95;;
16330;SDS011;8275;48.206;16.340;2022-11-11T10:05:23;9.18;;;8.27;;
16330;SDS011;8275;48.206;16.340;2022-11-11T10:07:59;10.02;;;6.68;;
16330;SDS011;8275;48.206;16.340;2022-11-11T10:10:33;12.07;;;6.93;;
16330;SDS011;8275;48.206;16.340;2022-11-11T10:13:11;7.85;;;6.15;;
16330;SDS011;8275;48.206;16.340;2022-11-11T10:15:45;8.60;;;7.80;;
16330;SDS011;8275;48.206;16.340;2022-11-11T10:21:30;12.38;;;7.40;;
16330;SDS011;8275;48.206;16.340;2022-11-11T10:24:28;8.43;;;7.63;;
16330;SDS011;8275;48.206;16.340;2022-11-11T10:27:11;9.07;;;8.20;;
16330;SDS011;8275;48.206;16.340;2022-11-11T10:29:44;8.02;;;7.32;;
16330;SDS011;8275;48.206;16.340;2022-11-11T10:32:15;8.27;;;7.57;;
16330;SDS011;8275;48.206;16.340;2022-11-11T10:34:47;7.40;;;6.70;;
16330;SDS011;8275;48.206;16.340;2022-11-11T10:37:17;9.20;;;8.30;;
16330;SDS011;8275;48.206;16.340;2022-11-11T10:39:53;9.63;;;7.75;;
16330;SDS011;8275;48.206;16.340;2022-11-11T10:42:30;8.57;;;7.75;;
16330;SDS011;8275;48.206;16.340;2022-11-11T10:44:59;7.20;;;6.53;;
16330;SDS011;8275;48.206;16.340;2022-11-11T10:47:39;9.80;;;6.72;;
16330;SDS011;8275;48.206;16.340;2022-11-11T10:50:15;8.63;;;7.65;;
16330;SDS011;8275;48.206;16.340;2022-11-11T10:52:53;7.53;;;6.80;;
16330;SDS011;8275;48.206;16.340;2022-11-11T10:55:30;8.68;;;7.93;;
16330;SDS011;8275;48.206;16.340;2022-11-11T10:58:08;10.77;;;7.95;;
16330;SDS011;8275;48.206;16.340;2022-11-11T11:00:46;10.45;;;7.78;;
16330;SDS011;8275;48.206;16.340;2022-11-11T11:03:20;7.78;;;7.10;;
16330;SDS011;8275;48.206;16.340;2022-11-11T11:05:54;7.45;;;6.75;;
16330;SDS011;8275;48.206;16.340;2022-11-11T11:08:33;11.02;;;8.20;;
16330;SDS011;8275;48.206;16.340;2022-11-11T11:11:06;10.05;;;7.22;;
16330;SDS011;8275;48.206;16.340;2022-11-11T11:13:44;9.32;;;8.25;;
16330;SDS011;8275;48.206;16.340;2022-11-11T11:16:19;8.23;;;7.43;;
16330;SDS011;8275;48.206;16.340;2022-11-11T11:21:50;11.02;;;7.95;;
16330;SDS011;8275;48.206;16.340;2022-11-11T11:24:24;8.90;;;7.22;;
16330;SDS011;8275;48.206;16.340;2022-11-11T11:26:55;9.45;;;7.20;;
16330;SDS011;8275;48.206;16.340;2022-11-11T11:29:29;7.43;;;6.40;;
16330;SDS011;8275;48.206;16.340;2022-11-11T11:32:10;8.52;;;7.70;;
16330;SDS011;8275;48.206;16.340;2022-11-11T11:34:42;9.60;;;6.55;;
16330;SDS011;8275;48.206;16.340;2022-11-11T11:37:13;8.23;;;7.43;;
16330;SDS011;8275;48.206;16.340;2022-11-11T11:39:45;6.88;;;6.28;;
16330;SDS011;8275;48.206;16.340;2022-11-11T11:42:26;9.80;;;6.50;;
16330;SDS011;8275;48.206;16.340;2022-11-11T11:45:02;12.95;;;7.20;;
16330;SDS011;8275;48.206;16.340;2022-11-11T11:47:56;20.65;;;7.20;;
16330;SDS011;8275;48.206;16.340;2022-11-11T11:51:00;13.15;;;7.45;;
16330;SDS011;8275;48.206;16.340;2022-11-11T11:53:46;7.22;;;5.65;;
16330;SDS011;8275;48.206;16.340;2022-11-11T11:56:33;7.25;;;6.55;;
16330;SDS011;8275;48.206;16.340;2022-11-11T11:59:07;6.88;;;6.28;;
16330;SDS011;8275;48.206;16.340;2022-11-11T12:01:43;6.97;;;6.38;;
16330;SDS011;8275;48.206;16.340;2022-11-11T12:04:31;6.75;;;5.13;;
16330;SDS011;8275;48.206;16.340;2022-11-11T12:07:26;5.63;;;5.03;;
16330;SDS011;8275;48.206;16.340;2022-11-11T12:10:23;6.15;;;5.55;;
16330;SDS011;8275;48.206;16.340;2022-11-11T12:13:14;10.90;;;6.95;;
16330;SDS011;8275;48.206;16.340;2022-11-11T12:15:58;28.67;;;6.10;;
16330;SDS011;8275;48.206;16.340;2022-11-11T12:18:53;8.23;;;6.10;;
16330;SDS011;8275;48.206;16.340;2022-11-11T12:21:50;9.63;;;6.57;;
16330;SDS011;8275;48.206;16.340;2022-11-11T12:24:34;8.30;;;7.50;;
16330;SDS011;8275;48.206;16.340;2022-11-11T12:27:16;6.93;;;6.32;;
16330;SDS011;8275;48.206;16.340;2022-11-11T12:30:02;8.35;;;7.47;;
16330;SDS011;8275;48.206;16.340;2022-11-11T12:32:44;16.98;;;7.60;;
16330;SDS011;8275;48.206;16.340;2022-11-11T12:35:42;8.80;;;8.00;;
16330;SDS011;8275;48.206;16.340;2022-11-11T12:38:32;10.35;;;8.15;;
16330;SDS011;8275;48.206;16.340;2022-11-11T12:41:19;9.85;;;8.75;;
16330;SDS011;8275;48.206;16.340;2022-11-11T12:44:06;9.20;;;8.25;;
16330;SDS011;8275;48.206;16.340;2022-11-11T12:46:41;8.88;;;6.47;;
16330;SDS011;8275;48.206;16.340;2022-11-11T12:49:30;8.75;;;7.85;;
16330;SDS011;8275;48.206;16.340;2022-11-11T12:52:16;7.90;;;7.18;;
16330;SDS011;8275;48.206;16.340;2022-11-11T12:55:00;14.40;;;8.05;;
16330;SDS011;8275;48.206;16.340;2022-11-11T12:57:45;10.15;;;8.02;;
16330;SDS011;8275;48.206;16.340;2022-11-11T13:00:32;11.80;;;7.10;;
16330;SDS011;8275;48.206;16.340;2022-11-11T13:03:20;10.95;;;8.35;;
16330;SDS011;8275;48.206;16.340;2022-11-11T13:06:16;7.65;;;6.95;;
16330;SDS011;8275;48.206;16.340;2022-11-11T13:09:00;9.02;;;7.45;;
16330;SDS011;8275;48.206;16.340;2022-11-11T13:11:58;10.55;;;7.38;;
16330;SDS011;8275;48.206;16.340;2022-11-11T13:14:40;8.38;;;6.03;;
16330;SDS011;8275;48.206;16.340;2022-11-11T13:17:23;11.68;;;6.68;;
16330;SDS011;8275;48.206;16.340;2022-11-11T13:19:53;9.23;;;8.13;;
16330;SDS011;8275;48.206;16.340;2022-11-11T13:22:25;9.48;;;8.05;;
16330;SDS011;8275;48.206;16.340;2022-11-11T13:24:55;9.13;;;7.57;;
16330;SDS011;8275;48.206;16.340;2022-11-11T13:27:32;6.50;;;5.90;;
16330;SDS011;8275;48.206;16.340;2022-11-11T13:33:34;7.07;;;6.38;;
16330;SDS011;8275;48.206;16.340;2022-11-11T13:36:10;12.98;;;7.82;;
16330;SDS011;8275;48.206;16.340;2022-11-11T13:38:43;9.07;;;6.03;;
16330;SDS011;8275;48.206;16.340;2022-11-11T13:41:19;8.75;;;6.10;;
16330;SDS011;8275;48.206;16.340;2022-11-11T13:43:52;7.03;;;5.88;;
16330;SDS011;8275;48.206;16.340;2022-11-11T13:46:30;5.10;;;4.60;;
16330;SDS011;8275;48.206;16.340;2022-11-11T13:49:03;6.05;;;5.45;;
16330;SDS011;8275;48.206;16.340;2022-11-11T13:51:37;9.05;;;6.28;;
16330;SDS011;8275;48.206;16.340;2022-11-11T13:54:18;12.40;;;6.05;;
16330;SDS011;8275;48.206;16.340;2022-11-11T13:56:52;8.82;;;7.80;;
16330;SDS011;8275;48.206;16.340;2022-11-11T13:59:35;8.25;;;6.93;;
16330;SDS011;8275;48.206;16.340;2022-11-11T14:07:50;9.60;;;7.63;;
16330;SDS011;8275;48.206;16.340;2022-11-11T14:13:34;5.57;;;4.95;;
16330;SDS011;8275;48.206;16.340;2022-11-11T14:16:09;10.10;;;5.45;;
16330;SDS011;8275;48.206;16.340;2022-11-11T14:18:42;6.60;;;5.90;;
16330;SDS011;8275;48.206;16.340;2022-11-11T14:24:23;24.92;;;10.77;;
16330;SDS011;8275;48.206;16.340;2022-11-11T14:26:58;9.45;;;8.35;;
16330;SDS011;8275;48.206;16.340;2022-11-11T14:29:29;10.60;;;9.32;;
16330;SDS011;8275;48.206;16.340;2022-11-11T14:32:04;7.63;;;6.85;;
16330;SDS011;8275;48.206;16.340;2022-11-11T14:34:58;6.18;;;5.45;;
16330;SDS011;8275;48.206;16.340;2022-11-11T14:37:52;7.53;;;6.78;;
16330;SDS011;8275;48.206;16.340;2022-11-11T14:40:39;8.88;;;7.78;;
16330;SDS011;8275;48.206;16.340;2022-11-11T14:46:06;12.40;;;7.50;;
16330;SDS011;8275;48.206;16.340;2022-11-11T14:49:00;7.05;;;5.65;;
16330;SDS011;8275;48.206;16.340;2022-11-11T14:51:42;7.13;;;6.47;;
16330;SDS011;8275;48.206;16.340;2022-11-11T14:57:23;12.07;;;6.05;;
16330;SDS011;8275;48.206;16.340;2022-11-11T14:59:56;6.80;;;5.88;;
16330;SDS011;8275;48.206;16.340;2022-11-11T15:02:30;8.45;;;4.72;;
16330;SDS011;8275;48.206;16.340;2022-11-11T15:05:02;4.95;;;4.38;;
16330;SDS011;8275;48.206;16.340;2022-11-11T15:07:44;5.57;;;4.90;;
16330;SDS011;8275;48.206;16.340;2022-11-11T15:10:38;10.27;;;5.75;;
16330;SDS011;8275;48.206;16.340;2022-11-11T15:13:40;7.07;;;5.78;;
16330;SDS011;8275;48.206;16.340;2022-11-11T15:16:42;10.02;;;5.70;;
16330;SDS011;8275;48.206;16.340;2022-11-11T15:22:32;6.35;;;5.03;;
16330;SDS011;8275;48.206;16.340;2022-11-11T15:25:22;6.18;;;4.82;;
16330;SDS011;8275;48.206;16.340;2022-11-11T15:28:06;4.18;;;3.65;;
16330;SDS011;8275;48.206;16.340;2022-11-11T15:30:56;6.50;;;5.88;;
16330;SDS011;8275;48.206;16.340;2022-11-11T15:33:38;5.40;;;3.97;;
16330;SDS011;8275;48.206;16.340;2022-11-11T15:36:18;7.57;;;5.78;;
16330;SDS011;8275;48.206;16.340;2022-11-11T15:39:03;8.48;;;6.28;;
16330;SDS011;8275;48.206;16.340;2022-11-11T15:41:38;8.25;;;5.38;;
16330;SDS011;8275;48.206;16.340;2022-11-11T15:44:12;8.20;;;6.80;;
16330;SDS011;8275;48.206;16.340;2022-11-11T15:46:47;5.40;;;4.90;;
16330;SDS011;8275;48.206;16.340;2022-11-11T15:52:03;7.45;;;6.47;;
16330;SDS011;8275;48.206;16.340;2022-11-11T15:54:32;10.00;;;7.75;;
16330;SDS011;8275;48.206;16.340;2022-11-11T15:57:14;6.90;;;6.05;;
16330;SDS011;8275;48.206;16.340;2022-11-11T15:59:50;7.43;;;6.70;;
16330;SDS011;8275;48.206;16.340;2022-11-11T16:02:21;9.73;;;6.68;;
16330;SDS011;8275;48.206;16.340;2022-11-11T16:04:54;6.45;;;5.85;;
16330;SDS011;8275;48.206;16.340;2022-11-11T16:07:26;6.38;;;5.78;;